sensor_id;sensor_type;location;lat;lon;timestamp;temperature;humidity
52621;DHT22;38515;53.160;6.990;2023-01-01T00:01:26;13.90;99.90
52621;DHT22;38515;53.160;6.990;2023-01-01T00:03:54;13.90;99.90
52621;DHT22;38515;53.160;6.990;2023-01-01T00:06:20;13.80;99.90
52621;DHT22;38515;53.160;6.990;2023-01-01T00:08:47;13.60;99.90
52621;DHT22;38515;53.160;6.990;2023-01-01T00:11:16;13.60;99.90
52621;DHT22;38515;53.160;6.990;2023-01-01T00:13:42;13.50;99.90
52621;DHT22;38515;53.160;6.990;2023-01-01T00:16:11;13.40;99.90
52621;DHT22;38515;53.160;6.990;2023-01-01T00:18:38;13.30;99.90
52621;DHT22;38515;53.160;6.990;2023-01-01T00:21:11;13.20;99.90
52621;DHT22;38515;53.160;6.990;2023-01-01T00:23:38;13.10;99.90
52621;DHT22;38515;53.160;6.990;2023-01-01T00:26:12;13.10;99.90
52621;DHT22;38515;53.160;6.990;2023-01-01T00:28:38;13.00;99.90
52621;DHT22;38515;53.160;6.990;2023-01-01T00:31:08;12.90;99.90
52621;DHT22;38515;53.160;6.990;2023-01-01T00:33:34;12.90;99.90
52621;DHT22;38515;53.160;6.990;2023-01-01T00:36:07;12.80;99.90
52621;DHT22;38515;53.160;6.990;2023-01-01T00:38:34;12.80;99.90
52621;DHT22;38515;53.160;6.990;2023-01-01T00:41:00;12.70;99.90
52621;DHT22;38515;53.160;6.990;2023-01-01T00:43:26;12.80;99.90
52621;DHT22;38515;53.160;6.990;2023-01-01T00:45:51;12.80;99.90
52621;DHT22;38515;53.160;6.990;2023-01-01T00:48:18;12.80;99.90
52621;DHT22;38515;53.160;6.990;2023-01-01T00:50:44;12.80;99.90
52621;DHT22;38515;53.160;6.990;2023-01-01T00:53:10;12.80;99.90
52621;DHT22;38515;53.160;6.990;2023-01-01T00:55:38;12.70;99.90
52621;DHT22;38515;53.160;6.990;2023-01-01T00:58:04;12.70;99.90
52621;DHT22;38515;53.160;6.990;2023-01-01T01:00:30;12.70;99.90
52621;DHT22;38515;53.160;6.990;2023-01-01T01:02:56;12.70;99.90
52621;DHT22;38515;53.160;6.990;2023-01-01T01:05:22;12.70;99.90
52621;DHT22;38515;53.160;6.990;2023-01-01T01:07:48;12.70;99.90
52621;DHT22;38515;53.160;6.990;2023-01-01T01:10:14;12.60;99.90
52621;DHT22;38515;53.160;6.990;2023-01-01T01:12:40;12.60;99.90
52621;DHT22;38515;53.160;6.990;2023-01-01T01:15:06;12.60;99.90
52621;DHT22;38515;53.160;6.990;2023-01-01T01:17:33;12.70;99.90
52621;DHT22;38515;53.160;6.990;2023-01-01T01:19:58;12.80;99.90
52621;DHT22;38515;53.160;6.990;2023-01-01T01:22:24;12.80;99.90
52621;DHT22;38515;53.160;6.990;2023-01-01T01:24:50;12.90;99.90
52621;DHT22;38515;53.160;6.990;2023-01-01T01:27:16;12.90;99.90
52621;DHT22;38515;53.160;6.990;2023-01-01T01:29:42;13.00;99.90
52621;DHT22;38515;53.160;6.990;2023-01-01T01:32:10;13.10;99.90
52621;DHT22;38515;53.160;6.990;2023-01-01T01:34:36;13.10;99.90
52621;DHT22;38515;53.160;6.990;2023-01-01T01:37:02;13.20;99.90
52621;DHT22;38515;53.160;6.990;2023-01-01T01:39:28;13.20;99.90
52621;DHT22;38515;53.160;6.990;2023-01-01T01:41:54;13.30;99.90
52621;DHT22;38515;53.160;6.990;2023-01-01T01:47:14;13.30;99.90
52621;DHT22;38515;53.160;6.990;2023-01-01T01:49:43;13.20;99.90
52621;DHT22;38515;53.160;6.990;2023-01-01T01:52:09;13.00;99.90
52621;DHT22;38515;53.160;6.990;2023-01-01T01:54:36;12.90;99.90
52621;DHT22;38515;53.160;6.990;2023-01-01T01:57:05;12.80;99.90
52621;DHT22;38515;53.160;6.990;2023-01-01T01:59:37;12.70;99.90
52621;DHT22;38515;53.160;6.990;2023-01-01T02:02:13;12.70;99.90
52621;DHT22;38515;53.160;6.990;2023-01-01T02:04:40;12.60;99.90
52621;DHT22;38515;53.160;6.990;2023-01-01T02:07:06;12.50;99.90
52621;DHT22;38515;53.160;6.990;2023-01-01T02:09:32;12.60;99.90
52621;DHT22;38515;53.160;6.990;2023-01-01T02:11:58;12.60;99.90
52621;DHT22;38515;53.160;6.990;2023-01-01T02:14:24;12.60;99.90
52621;DHT22;38515;53.160;6.990;2023-01-01T02:17:06;12.70;99.90
52621;DHT22;38515;53.160;6.990;2023-01-01T02:30:40;12.80;99.90
52621;DHT22;38515;53.160;6.990;2023-01-01T02:33:13;12.80;99.90
52621;DHT22;38515;53.160;6.990;2023-01-01T02:35:47;12.80;99.90
52621;DHT22;38515;53.160;6.990;2023-01-01T02:38:44;11.70;99.90
52621;DHT22;38515;53.160;6.990;2023-01-01T02:41:11;12.90;99.90
52621;DHT22;38515;53.160;6.990;2023-01-01T02:43:40;12.80;99.90
52621;DHT22;38515;53.160;6.990;2023-01-01T02:46:10;12.80;99.90
52621;DHT22;38515;53.160;6.990;2023-01-01T02:48:44;12.90;99.90
52621;DHT22;38515;53.160;6.990;2023-01-01T02:57:06;13.00;99.90
52621;DHT22;38515;53.160;6.990;2023-01-01T03:08:09;13.30;99.90
52621;DHT22;38515;53.160;6.990;2023-01-01T03:10:43;13.20;99.90
52621;DHT22;38515;53.160;6.990;2023-01-01T03:13:24;13.20;99.90
52621;DHT22;38515;53.160;6.990;2023-01-01T03:18:41;13.30;99.90
52621;DHT22;38515;53.160;6.990;2023-01-01T03:21:09;13.30;99.90
52621;DHT22;38515;53.160;6.990;2023-01-01T03:23:41;13.30;99.90
52621;DHT22;38515;53.160;6.990;2023-01-01T03:26:11;13.40;99.90
52621;DHT22;38515;53.160;6.990;2023-01-01T03:28:47;13.30;99.90
52621;DHT22;38515;53.160;6.990;2023-01-01T03:31:17;13.30;99.90
52621;DHT22;38515;53.160;6.990;2023-01-01T03:33:51;13.40;99.90
52621;DHT22;38515;53.160;6.990;2023-01-01T03:36:21;13.40;99.90
52621;DHT22;38515;53.160;6.990;2023-01-01T03:38:57;13.40;99.90
52621;DHT22;38515;53.160;6.990;2023-01-01T03:44:21;13.50;99.90
52621;DHT22;38515;53.160;6.990;2023-01-01T03:46:48;13.50;99.90
52621;DHT22;38515;53.160;6.990;2023-01-01T03:49:15;13.50;99.90
52621;DHT22;38515;53.160;6.990;2023-01-01T03:51:52;13.50;99.90
52621;DHT22;38515;53.160;6.990;2023-01-01T03:57:25;13.50;99.90
52621;DHT22;38515;53.160;6.990;2023-01-01T04:05:14;13.40;99.90
52621;DHT22;38515;53.160;6.990;2023-01-01T04:07:41;13.30;99.90
52621;DHT22;38515;53.160;6.990;2023-01-01T04:10:07;13.10;99.90
52621;DHT22;38515;53.160;6.990;2023-01-01T04:12:54;12.90;99.90
52621;DHT22;38515;53.160;6.990;2023-01-01T04:15:23;12.70;99.90
52621;DHT22;38515;53.160;6.990;2023-01-01T04:17:50;12.60;99.90
52621;DHT22;38515;53.160;6.990;2023-01-01T04:20:17;12.60;99.90
52621;DHT22;38515;53.160;6.990;2023-01-01T04:22:44;12.50;99.90
52621;DHT22;38515;53.160;6.990;2023-01-01T04:25:11;12.40;99.90
52621;DHT22;38515;53.160;6.990;2023-01-01T04:27:38;12.30;99.90
52621;DHT22;38515;53.160;6.990;2023-01-01T04:30:06;12.20;99.90
52621;DHT22;38515;53.160;6.990;2023-01-01T04:32:32;12.20;99.90
52621;DHT22;38515;53.160;6.990;2023-01-01T04:34:59;12.10;99.90
52621;DHT22;38515;53.160;6.990;2023-01-01T04:37:25;12.00;99.90
52621;DHT22;38515;53.160;6.990;2023-01-01T04:39:51;11.90;99.90
52621;DHT22;38515;53.160;6.990;2023-01-01T04:42:17;11.80;99.90
52621;DHT22;38515;53.160;6.990;2023-01-01T04:44:43;11.70;99.90
52621;DHT22;38515;53.160;6.990;2023-01-01T04:47:09;11.70;99.90
52621;DHT22;38515;53.160;6.990;2023-01-01T04:49:36;11.70;99.90
52621;DHT22;38515;53.160;6.990;2023-01-01T04:52:02;11.70;99.90
52621;DHT22;38515;53.160;6.990;2023-01-01T04:54:28;11.70;99.90
52621;DHT22;38515;53.160;6.990;2023-01-01T04:56:54;11.80;99.90
52621;DHT22;38515;53.160;6.990;2023-01-01T04:59:20;11.70;99.90
52621;DHT22;38515;53.160;6.990;2023-01-01T05:01:46;11.70;99.90
52621;DHT22;38515;53.160;6.990;2023-01-01T05:04:13;11.70;99.90
52621;DHT22;38515;53.160;6.990;2023-01-01T05:06:39;11.60;99.90
52621;DHT22;38515;53.160;6.990;2023-01-01T05:09:05;11.70;99.90
52621;DHT22;38515;53.160;6.990;2023-01-01T05:11:31;11.80;99.90
52621;DHT22;38515;53.160;6.990;2023-01-01T05:13:59;11.90;99.90
52621;DHT22;38515;53.160;6.990;2023-01-01T05:16:26;12.00;99.90
52621;DHT22;38515;53.160;6.990;2023-01-01T05:18:53;12.10;99.90
52621;DHT22;38515;53.160;6.990;2023-01-01T05:21:24;12.20;99.90
52621;DHT22;38515;53.160;6.990;2023-01-01T05:23:55;12.30;99.90
52621;DHT22;38515;53.160;6.990;2023-01-01T05:26:22;12.30;99.90
52621;DHT22;38515;53.160;6.990;2023-01-01T05:28:49;12.40;99.90
52621;DHT22;38515;53.160;6.990;2023-01-01T05:31:18;12.40;99.90
52621;DHT22;38515;53.160;6.990;2023-01-01T05:33:44;12.40;99.90
52621;DHT22;38515;53.160;6.990;2023-01-01T05:36:15;12.40;99.90
52621;DHT22;38515;53.160;6.990;2023-01-01T05:38:41;12.40;99.90
52621;DHT22;38515;53.160;6.990;2023-01-01T05:41:09;12.50;99.90
52621;DHT22;38515;53.160;6.990;2023-01-01T05:43:35;12.40;99.90
52621;DHT22;38515;53.160;6.990;2023-01-01T05:46:06;12.40;99.90
52621;DHT22;38515;53.160;6.990;2023-01-01T05:48:33;12.40;99.90
52621;DHT22;38515;53.160;6.990;2023-01-01T05:51:06;12.40;99.90
52621;DHT22;38515;53.160;6.990;2023-01-01T05:53:33;12.40;99.90
52621;DHT22;38515;53.160;6.990;2023-01-01T05:56:00;12.40;99.90
52621;DHT22;38515;53.160;6.990;2023-01-01T05:58:27;12.50;99.90
52621;DHT22;38515;53.160;6.990;2023-01-01T06:00:54;12.50;99.90
52621;DHT22;38515;53.160;6.990;2023-01-01T06:03:20;12.50;99.90
52621;DHT22;38515;53.160;6.990;2023-01-01T06:05:46;12.50;99.90
52621;DHT22;38515;53.160;6.990;2023-01-01T06:08:12;12.50;99.90
52621;DHT22;38515;53.160;6.990;2023-01-01T06:10:38;12.40;99.90
52621;DHT22;38515;53.160;6.990;2023-01-01T06:13:04;12.40;99.90
52621;DHT22;38515;53.160;6.990;2023-01-01T06:15:30;12.40;99.90
52621;DHT22;38515;53.160;6.990;2023-01-01T06:17:57;12.40;99.90
52621;DHT22;38515;53.160;6.990;2023-01-01T06:20:23;12.40;99.90
52621;DHT22;38515;53.160;6.990;2023-01-01T06:22:49;12.40;99.90
52621;DHT22;38515;53.160;6.990;2023-01-01T06:25:15;12.40;99.90
52621;DHT22;38515;53.160;6.990;2023-01-01T06:27:41;12.50;99.90
52621;DHT22;38515;53.160;6.990;2023-01-01T06:30:07;12.40;99.90
52621;DHT22;38515;53.160;6.990;2023-01-01T06:32:33;12.40;99.90
52621;DHT22;38515;53.160;6.990;2023-01-01T06:34:59;12.30;99.90
52621;DHT22;38515;53.160;6.990;2023-01-01T06:37:27;12.30;99.90
52621;DHT22;38515;53.160;6.990;2023-01-01T06:39:53;12.40;99.90
52621;DHT22;38515;53.160;6.990;2023-01-01T06:42:23;12.30;99.90
52621;DHT22;38515;53.160;6.990;2023-01-01T06:44:52;12.20;99.90
52621;DHT22;38515;53.160;6.990;2023-01-01T06:47:18;12.20;99.90
52621;DHT22;38515;53.160;6.990;2023-01-01T06:49:43;12.20;99.90
52621;DHT22;38515;53.160;6.990;2023-01-01T06:52:09;12.20;99.90
52621;DHT22;38515;53.160;6.990;2023-01-01T06:54:35;12.20;99.90
52621;DHT22;38515;53.160;6.990;2023-01-01T06:57:01;12.20;99.90
52621;DHT22;38515;53.160;6.990;2023-01-01T06:59:27;12.20;99.90
52621;DHT22;38515;53.160;6.990;2023-01-01T07:01:53;12.20;99.90
52621;DHT22;38515;53.160;6.990;2023-01-01T07:04:19;12.30;99.90
52621;DHT22;38515;53.160;6.990;2023-01-01T07:06:45;12.30;99.90
52621;DHT22;38515;53.160;6.990;2023-01-01T07:09:11;12.20;99.90
52621;DHT22;38515;53.160;6.990;2023-01-01T07:11:36;12.20;99.90
52621;DHT22;38515;53.160;6.990;2023-01-01T07:14:02;12.20;99.90
52621;DHT22;38515;53.160;6.990;2023-01-01T07:16:29;12.20;99.90
52621;DHT22;38515;53.160;6.990;2023-01-01T07:18:54;12.10;99.90
52621;DHT22;38515;53.160;6.990;2023-01-01T07:21:43;12.00;99.90
52621;DHT22;38515;53.160;6.990;2023-01-01T07:24:14;12.00;99.90
52621;DHT22;38515;53.160;6.990;2023-01-01T07:26:40;12.00;99.90
52621;DHT22;38515;53.160;6.990;2023-01-01T07:29:06;11.90;99.90
52621;DHT22;38515;53.160;6.990;2023-01-01T07:31:34;12.00;99.90
52621;DHT22;38515;53.160;6.990;2023-01-01T07:34:00;11.90;99.90
52621;DHT22;38515;53.160;6.990;2023-01-01T07:36:26;11.90;99.90
52621;DHT22;38515;53.160;6.990;2023-01-01T07:38:52;11.90;99.90
52621;DHT22;38515;53.160;6.990;2023-01-01T07:41:18;11.90;99.90
52621;DHT22;38515;53.160;6.990;2023-01-01T07:43:44;11.80;99.90
52621;DHT22;38515;53.160;6.990;2023-01-01T07:46:12;11.80;99.90
52621;DHT22;38515;53.160;6.990;2023-01-01T07:48:38;11.80;99.90
52621;DHT22;38515;53.160;6.990;2023-01-01T07:51:04;11.70;99.90
52621;DHT22;38515;53.160;6.990;2023-01-01T07:53:30;11.80;99.90
52621;DHT22;38515;53.160;6.990;2023-01-01T07:55:56;11.80;99.90
52621;DHT22;38515;53.160;6.990;2023-01-01T07:58:22;11.80;99.90
52621;DHT22;38515;53.160;6.990;2023-01-01T08:00:48;11.80;99.90
52621;DHT22;38515;53.160;6.990;2023-01-01T08:03:20;11.80;99.90
52621;DHT22;38515;53.160;6.990;2023-01-01T08:05:46;11.70;99.90
52621;DHT22;38515;53.160;6.990;2023-01-01T08:08:13;11.70;99.90
52621;DHT22;38515;53.160;6.990;2023-01-01T08:10:39;11.70;99.90
52621;DHT22;38515;53.160;6.990;2023-01-01T08:13:06;11.60;99.90
52621;DHT22;38515;53.160;6.990;2023-01-01T08:15:33;11.70;99.90
52621;DHT22;38515;53.160;6.990;2023-01-01T08:18:01;11.70;99.90
52621;DHT22;38515;53.160;6.990;2023-01-01T08:20:29;11.60;99.90
52621;DHT22;38515;53.160;6.990;2023-01-01T08:22:56;11.70;99.90
52621;DHT22;38515;53.160;6.990;2023-01-01T08:25:22;11.60;99.90
52621;DHT22;38515;53.160;6.990;2023-01-01T08:27:48;11.60;99.90
52621;DHT22;38515;53.160;6.990;2023-01-01T08:30:15;11.60;99.90
52621;DHT22;38515;53.160;6.990;2023-01-01T08:32:41;11.60;99.90
52621;DHT22;38515;53.160;6.990;2023-01-01T08:35:07;11.60;99.90
52621;DHT22;38515;53.160;6.990;2023-01-01T08:37:33;11.60;99.90
52621;DHT22;38515;53.160;6.990;2023-01-01T08:39:59;11.60;99.90
52621;DHT22;38515;53.160;6.990;2023-01-01T08:42:25;11.60;99.90
52621;DHT22;38515;53.160;6.990;2023-01-01T08:44:51;11.70;99.90
52621;DHT22;38515;53.160;6.990;2023-01-01T08:47:22;11.60;99.90
52621;DHT22;38515;53.160;6.990;2023-01-01T08:49:49;11.60;99.90
52621;DHT22;38515;53.160;6.990;2023-01-01T08:52:15;11.60;99.90
52621;DHT22;38515;53.160;6.990;2023-01-01T08:54:41;11.60;99.90
52621;DHT22;38515;53.160;6.990;2023-01-01T08:57:07;11.60;99.90
52621;DHT22;38515;53.160;6.990;2023-01-01T08:59:33;11.60;99.90
52621;DHT22;38515;53.160;6.990;2023-01-01T09:01:58;11.60;99.90
52621;DHT22;38515;53.160;6.990;2023-01-01T09:04:25;11.60;99.90
52621;DHT22;38515;53.160;6.990;2023-01-01T09:06:51;11.50;99.90
52621;DHT22;38515;53.160;6.990;2023-01-01T09:09:17;11.60;99.90
52621;DHT22;38515;53.160;6.990;2023-01-01T09:11:54;11.60;99.90
52621;DHT22;38515;53.160;6.990;2023-01-01T09:14:21;11.50;99.90
52621;DHT22;38515;53.160;6.990;2023-01-01T09:16:47;11.50;99.90
52621;DHT22;38515;53.160;6.990;2023-01-01T09:19:13;11.50;99.90
52621;DHT22;38515;53.160;6.990;2023-01-01T09:21:39;11.60;99.90
52621;DHT22;38515;53.160;6.990;2023-01-01T09:24:05;11.60;99.90
52621;DHT22;38515;53.160;6.990;2023-01-01T09:26:31;11.50;99.90
52621;DHT22;38515;53.160;6.990;2023-01-01T09:28:57;11.50;99.90
52621;DHT22;38515;53.160;6.990;2023-01-01T09:31:24;11.50;99.90
52621;DHT22;38515;53.160;6.990;2023-01-01T09:33:50;11.60;99.90
52621;DHT22;38515;53.160;6.990;2023-01-01T09:38:52;11.50;99.90
52621;DHT22;38515;53.160;6.990;2023-01-01T09:46:51;11.60;99.90
52621;DHT22;38515;53.160;6.990;2023-01-01T09:49:32;11.60;99.90
52621;DHT22;38515;53.160;6.990;2023-01-01T09:52:00;11.60;99.90
52621;DHT22;38515;53.160;6.990;2023-01-01T09:54:59;11.60;99.90
52621;DHT22;38515;53.160;6.990;2023-01-01T09:57:30;11.70;99.90
52621;DHT22;38515;53.160;6.990;2023-01-01T09:59:57;11.70;99.90
52621;DHT22;38515;53.160;6.990;2023-01-01T10:08:15;11.70;99.90
52621;DHT22;38515;53.160;6.990;2023-01-01T10:11:14;11.70;99.90
52621;DHT22;38515;53.160;6.990;2023-01-01T10:13:43;11.70;99.90
52621;DHT22;38515;53.160;6.990;2023-01-01T10:18:39;11.70;99.90
52621;DHT22;38515;53.160;6.990;2023-01-01T10:23:43;11.70;99.90
52621;DHT22;38515;53.160;6.990;2023-01-01T10:26:17;11.70;99.90
52621;DHT22;38515;53.160;6.990;2023-01-01T10:28:55;11.80;99.90
52621;DHT22;38515;53.160;6.990;2023-01-01T10:31:38;11.80;99.90
52621;DHT22;38515;53.160;6.990;2023-01-01T10:34:26;11.80;99.90
52621;DHT22;38515;53.160;6.990;2023-01-01T10:36:58;11.90;99.90
52621;DHT22;38515;53.160;6.990;2023-01-01T10:39:26;12.00;99.90
52621;DHT22;38515;53.160;6.990;2023-01-01T10:41:52;12.00;99.90
52621;DHT22;38515;53.160;6.990;2023-01-01T10:44:30;12.00;99.90
52621;DHT22;38515;53.160;6.990;2023-01-01T10:46:57;11.90;99.90
52621;DHT22;38515;53.160;6.990;2023-01-01T10:49:23;11.80;99.90
52621;DHT22;38515;53.160;6.990;2023-01-01T10:51:51;11.80;99.90
52621;DHT22;38515;53.160;6.990;2023-01-01T10:54:30;11.70;99.90
52621;DHT22;38515;53.160;6.990;2023-01-01T10:56:58;11.70;99.90
52621;DHT22;38515;53.160;6.990;2023-01-01T10:59:51;11.70;99.90
52621;DHT22;38515;53.160;6.990;2023-01-01T11:02:23;11.70;99.90
52621;DHT22;38515;53.160;6.990;2023-01-01T11:04:50;11.70;99.90
52621;DHT22;38515;53.160;6.990;2023-01-01T11:07:29;11.70;99.90
52621;DHT22;38515;53.160;6.990;2023-01-01T11:09:59;11.70;99.90
52621;DHT22;38515;53.160;6.990;2023-01-01T11:12:29;11.60;99.90
52621;DHT22;38515;53.160;6.990;2023-01-01T11:14:56;11.60;99.90
52621;DHT22;38515;53.160;6.990;2023-01-01T11:17:29;11.50;99.90
52621;DHT22;38515;53.160;6.990;2023-01-01T11:19:56;11.60;99.90
52621;DHT22;38515;53.160;6.990;2023-01-01T11:22:42;11.60;99.90
52621;DHT22;38515;53.160;6.990;2023-01-01T11:25:28;11.50;99.90
52621;DHT22;38515;53.160;6.990;2023-01-01T11:30:40;11.40;99.90
52621;DHT22;38515;53.160;6.990;2023-01-01T11:33:14;11.50;99.90
52621;DHT22;38515;53.160;6.990;2023-01-01T11:35:53;11.50;99.90
52621;DHT22;38515;53.160;6.990;2023-01-01T11:38:21;12.00;99.90
52621;DHT22;38515;53.160;6.990;2023-01-01T11:41:00;11.60;99.90
52621;DHT22;38515;53.160;6.990;2023-01-01T11:43:27;11.70;99.90
52621;DHT22;38515;53.160;6.990;2023-01-01T11:45:54;11.80;99.90
52621;DHT22;38515;53.160;6.990;2023-01-01T11:48:32;11.70;99.90
52621;DHT22;38515;53.160;6.990;2023-01-01T11:51:06;11.70;99.90
52621;DHT22;38515;53.160;6.990;2023-01-01T11:53:42;11.70;99.90
52621;DHT22;38515;53.160;6.990;2023-01-01T11:58:46;11.80;99.90
52621;DHT22;38515;53.160;6.990;2023-01-01T12:01:28;11.80;99.90
52621;DHT22;38515;53.160;6.990;2023-01-01T12:04:02;11.80;99.90
52621;DHT22;38515;53.160;6.990;2023-01-01T12:12:42;12.10;99.90
52621;DHT22;38515;53.160;6.990;2023-01-01T12:15:36;12.20;99.90
52621;DHT22;38515;53.160;6.990;2023-01-01T12:18:17;12.30;99.90
52621;DHT22;38515;53.160;6.990;2023-01-01T12:21:05;12.40;99.90
52621;DHT22;38515;53.160;6.990;2023-01-01T12:23:35;12.40;99.90
52621;DHT22;38515;53.160;6.990;2023-01-01T12:31:59;12.50;99.90
52621;DHT22;38515;53.160;6.990;2023-01-01T12:51:20;12.20;99.90
52621;DHT22;38515;53.160;6.990;2023-01-01T12:54:14;12.20;99.90
52621;DHT22;38515;53.160;6.990;2023-01-01T12:56:51;12.20;99.90
52621;DHT22;38515;53.160;6.990;2023-01-01T12:59:25;12.10;99.90
52621;DHT22;38515;53.160;6.990;2023-01-01T13:01:58;12.10;99.90
52621;DHT22;38515;53.160;6.990;2023-01-01T13:04:25;12.10;99.90
52621;DHT22;38515;53.160;6.990;2023-01-01T13:06:57;12.10;99.90
52621;DHT22;38515;53.160;6.990;2023-01-01T13:09:36;12.10;99.90
52621;DHT22;38515;53.160;6.990;2023-01-01T13:14:39;12.10;99.90
52621;DHT22;38515;53.160;6.990;2023-01-01T13:17:27;12.10;99.90
52621;DHT22;38515;53.160;6.990;2023-01-01T13:22:37;12.00;99.90
52621;DHT22;38515;53.160;6.990;2023-01-01T13:41:43;12.00;99.90
52621;DHT22;38515;53.160;6.990;2023-01-01T13:44:22;12.00;99.90
52621;DHT22;38515;53.160;6.990;2023-01-01T13:52:58;11.90;99.90
52621;DHT22;38515;53.160;6.990;2023-01-01T13:55:42;11.90;99.90
52621;DHT22;38515;53.160;6.990;2023-01-01T14:03:49;11.80;99.90
52621;DHT22;38515;53.160;6.990;2023-01-01T14:06:37;11.80;99.90
52621;DHT22;38515;53.160;6.990;2023-01-01T14:09:09;11.80;99.90
52621;DHT22;38515;53.160;6.990;2023-01-01T14:11:36;11.70;99.90
52621;DHT22;38515;53.160;6.990;2023-01-01T14:14:02;11.70;99.90
52621;DHT22;38515;53.160;6.990;2023-01-01T14:16:28;11.60;99.90
52621;DHT22;38515;53.160;6.990;2023-01-01T14:18:59;11.60;99.90
52621;DHT22;38515;53.160;6.990;2023-01-01T14:21:32;11.60;99.90
52621;DHT22;38515;53.160;6.990;2023-01-01T14:24:01;11.50;99.90
52621;DHT22;38515;53.160;6.990;2023-01-01T14:26:29;11.50;99.90
52621;DHT22;38515;53.160;6.990;2023-01-01T14:29:01;11.50;99.90
52621;DHT22;38515;53.160;6.990;2023-01-01T14:31:35;11.50;99.90
52621;DHT22;38515;53.160;6.990;2023-01-01T14:36:50;11.40;99.90
52621;DHT22;38515;53.160;6.990;2023-01-01T14:39:42;11.40;99.90
52621;DHT22;38515;53.160;6.990;2023-01-01T14:42:14;11.40;99.90
52621;DHT22;38515;53.160;6.990;2023-01-01T14:44:43;11.30;99.90
52621;DHT22;38515;53.160;6.990;2023-01-01T14:47:30;11.20;99.90
52621;DHT22;38515;53.160;6.990;2023-01-01T14:50:04;11.20;99.90
52621;DHT22;38515;53.160;6.990;2023-01-01T14:52:35;11.10;99.90
52621;DHT22;38515;53.160;6.990;2023-01-01T14:55:02;11.10;99.90
52621;DHT22;38515;53.160;6.990;2023-01-01T14:57:32;11.10;99.90
52621;DHT22;38515;53.160;6.990;2023-01-01T14:59:58;11.10;99.90
52621;DHT22;38515;53.160;6.990;2023-01-01T15:02:27;11.10;99.90
52621;DHT22;38515;53.160;6.990;2023-01-01T15:04:56;11.10;99.90
52621;DHT22;38515;53.160;6.990;2023-01-01T15:07:24;11.10;99.90
52621;DHT22;38515;53.160;6.990;2023-01-01T15:09:52;11.00;99.90
52621;DHT22;38515;53.160;6.990;2023-01-01T15:12:19;10.90;99.90
52621;DHT22;38515;53.160;6.990;2023-01-01T15:14:47;10.90;99.90
52621;DHT22;38515;53.160;6.990;2023-01-01T15:17:15;10.80;99.90
52621;DHT22;38515;53.160;6.990;2023-01-01T15:19:44;10.80;99.90
52621;DHT22;38515;53.160;6.990;2023-01-01T15:24:44;10.70;99.90
52621;DHT22;38515;53.160;6.990;2023-01-01T15:27:24;10.70;99.90
52621;DHT22;38515;53.160;6.990;2023-01-01T15:29:50;10.70;99.90
52621;DHT22;38515;53.160;6.990;2023-01-01T15:32:24;10.70;99.90
52621;DHT22;38515;53.160;6.990;2023-01-01T15:34:55;10.70;99.90
52621;DHT22;38515;53.160;6.990;2023-01-01T15:42:43;10.60;99.90
52621;DHT22;38515;53.160;6.990;2023-01-01T15:45:31;10.60;99.90
52621;DHT22;38515;53.160;6.990;2023-01-01T15:51:19;10.40;99.90
52621;DHT22;38515;53.160;6.990;2023-01-01T15:56:25;10.30;99.90
52621;DHT22;38515;53.160;6.990;2023-01-01T16:01:32;10.20;99.90
52621;DHT22;38515;53.160;6.990;2023-01-01T16:04:20;10.20;99.90
52621;DHT22;38515;53.160;6.990;2023-01-01T16:06:49;10.10;99.90
52621;DHT22;38515;53.160;6.990;2023-01-01T16:09:16;10.10;99.90
52621;DHT22;38515;53.160;6.990;2023-01-01T16:11:43;10.10;99.90
52621;DHT22;38515;53.160;6.990;2023-01-01T16:14:10;10.10;99.90
52621;DHT22;38515;53.160;6.990;2023-01-01T16:16:37;10.10;99.90
52621;DHT22;38515;53.160;6.990;2023-01-01T16:19:04;10.10;99.90
52621;DHT22;38515;53.160;6.990;2023-01-01T16:21:31;10.10;99.90
52621;DHT22;38515;53.160;6.990;2023-01-01T16:24:00;10.10;99.90
52621;DHT22;38515;53.160;6.990;2023-01-01T16:26:26;10.10;99.90
52621;DHT22;38515;53.160;6.990;2023-01-01T16:28:52;10.10;99.90
52621;DHT22;38515;53.160;6.990;2023-01-01T16:31:22;10.10;99.90
52621;DHT22;38515;53.160;6.990;2023-01-01T16:33:54;10.10;99.90
52621;DHT22;38515;53.160;6.990;2023-01-01T16:36:20;10.20;99.90
52621;DHT22;38515;53.160;6.990;2023-01-01T16:38:46;10.10;99.90
52621;DHT22;38515;53.160;6.990;2023-01-01T16:41:16;10.20;99.90
52621;DHT22;38515;53.160;6.990;2023-01-01T16:43:43;10.20;99.90
52621;DHT22;38515;53.160;6.990;2023-01-01T16:46:10;10.20;99.90
52621;DHT22;38515;53.160;6.990;2023-01-01T16:48:36;10.20;99.90
52621;DHT22;38515;53.160;6.990;2023-01-01T16:51:03;10.20;99.90
52621;DHT22;38515;53.160;6.990;2023-01-01T16:53:29;10.20;99.90
52621;DHT22;38515;53.160;6.990;2023-01-01T16:55:56;10.20;99.90
52621;DHT22;38515;53.160;6.990;2023-01-01T16:58:22;10.20;99.90
52621;DHT22;38515;53.160;6.990;2023-01-01T17:00:49;10.20;99.90
52621;DHT22;38515;53.160;6.990;2023-01-01T17:03:15;10.20;99.90
52621;DHT22;38515;53.160;6.990;2023-01-01T17:05:41;10.20;99.90
52621;DHT22;38515;53.160;6.990;2023-01-01T17:08:07;10.20;99.90
52621;DHT22;38515;53.160;6.990;2023-01-01T17:10:33;10.20;99.90
52621;DHT22;38515;53.160;6.990;2023-01-01T17:12:59;10.20;99.90
52621;DHT22;38515;53.160;6.990;2023-01-01T17:15:28;10.20;99.90
52621;DHT22;38515;53.160;6.990;2023-01-01T17:17:54;10.20;99.90
52621;DHT22;38515;53.160;6.990;2023-01-01T17:20:21;10.20;99.90
52621;DHT22;38515;53.160;6.990;2023-01-01T17:22:47;10.20;99.90
52621;DHT22;38515;53.160;6.990;2023-01-01T17:25:13;10.20;99.90
52621;DHT22;38515;53.160;6.990;2023-01-01T17:27:39;10.20;99.90
52621;DHT22;38515;53.160;6.990;2023-01-01T17:30:06;10.10;99.90
52621;DHT22;38515;53.160;6.990;2023-01-01T17:32:33;10.10;99.90
52621;DHT22;38515;53.160;6.990;2023-01-01T17:34:59;10.10;99.90
52621;DHT22;38515;53.160;6.990;2023-01-01T17:37:26;10.00;99.90
52621;DHT22;38515;53.160;6.990;2023-01-01T17:39:52;10.00;99.90
52621;DHT22;38515;53.160;6.990;2023-01-01T17:42:18;9.90;99.90
52621;DHT22;38515;53.160;6.990;2023-01-01T17:44:44;9.90;99.90
52621;DHT22;38515;53.160;6.990;2023-01-01T17:47:10;9.90;99.90
52621;DHT22;38515;53.160;6.990;2023-01-01T17:49:36;9.90;99.90
52621;DHT22;38515;53.160;6.990;2023-01-01T17:52:02;9.90;99.90
52621;DHT22;38515;53.160;6.990;2023-01-01T17:54:28;9.90;99.90
52621;DHT22;38515;53.160;6.990;2023-01-01T17:56:54;9.90;99.90
52621;DHT22;38515;53.160;6.990;2023-01-01T17:59:24;10.00;99.90
52621;DHT22;38515;53.160;6.990;2023-01-01T18:01:50;10.50;99.90
52621;DHT22;38515;53.160;6.990;2023-01-01T18:04:16;10.00;99.90
52621;DHT22;38515;53.160;6.990;2023-01-01T18:06:43;10.00;99.90
52621;DHT22;38515;53.160;6.990;2023-01-01T18:09:11;10.00;99.90
52621;DHT22;38515;53.160;6.990;2023-01-01T18:11:38;10.10;99.90